Terminal Aerodrome Forecast
Issued by NWS Hastings, NE

Current Version | Previous Version | Text Only | Print | Product List | Glossary On
Versions: 1 2 3 4 5 6 7 8 9 10 11 12 13 14 15 16 17 18 19 20 21 22 23 24 25 26 27 28 29
000
FTUS45 KGID 222342
TAFEAR
TAF
KEAR 222342Z 2300/2324 31015G19KT P6SM SCT025 OVC060
     FM230600 31015G20KT P6SM SCT010 BKN025
     FM231000 31017G24KT 5SM -SN BR SCT004 OVC010
     FM231600 34019G27KT 3SM -SN BR OVC006
      AMD LTD TO CLD VIS AND WIND=

USA.gov is the U.S. government's official web portal to all federal, state and local government web resources and services.